sensor_id;sensor_type;location;lat;lon;timestamp;P1;durP1;ratioP1;P2;durP2;ratioP2
26502;SDS011;14177;51.520;6.764;2022-07-17T00:01:20;5.10;;;1.30;;
26502;SDS011;14177;51.520;6.764;2022-07-17T00:03:47;5.15;;;1.45;;
26502;SDS011;14177;51.520;6.764;2022-07-17T00:06:14;5.75;;;1.38;;
26502;SDS011;14177;51.520;6.764;2022-07-17T00:08:41;2.67;;;1.23;;
26502;SDS011;14177;51.520;6.764;2022-07-17T00:11:09;3.28;;;1.23;;
26502;SDS011;14177;51.520;6.764;2022-07-17T00:13:37;2.80;;;1.48;;
26502;SDS011;14177;51.520;6.764;2022-07-17T00:16:04;3.28;;;1.40;;
26502;SDS011;14177;51.520;6.764;2022-07-17T00:18:31;3.03;;;1.27;;
26502;SDS011;14177;51.520;6.764;2022-07-17T00:20:58;5.68;;;1.85;;
26502;SDS011;14177;51.520;6.764;2022-07-17T00:23:25;3.63;;;1.80;;
26502;SDS011;14177;51.520;6.764;2022-07-17T00:25:52;4.47;;;1.52;;
26502;SDS011;14177;51.520;6.764;2022-07-17T00:28:19;7.40;;;1.73;;
26502;SDS011;14177;51.520;6.764;2022-07-17T00:30:46;4.05;;;1.42;;
26502;SDS011;14177;51.520;6.764;2022-07-17T00:33:13;5.13;;;2.03;;
26502;SDS011;14177;51.520;6.764;2022-07-17T00:35:41;5.55;;;1.70;;
26502;SDS011;14177;51.520;6.764;2022-07-17T00:38:07;4.10;;;1.67;;
26502;SDS011;14177;51.520;6.764;2022-07-17T00:40:36;7.13;;;1.60;;
26502;SDS011;14177;51.520;6.764;2022-07-17T00:43:03;4.03;;;1.50;;
26502;SDS011;14177;51.520;6.764;2022-07-17T00:45:30;4.70;;;1.48;;
26502;SDS011;14177;51.520;6.764;2022-07-17T00:47:58;6.18;;;1.40;;
26502;SDS011;14177;51.520;6.764;2022-07-17T00:50:29;5.32;;;1.50;;
26502;SDS011;14177;51.520;6.764;2022-07-17T00:53:03;4.28;;;1.30;;
26502;SDS011;14177;51.520;6.764;2022-07-17T00:55:32;4.82;;;1.30;;
26502;SDS011;14177;51.520;6.764;2022-07-17T00:58:10;2.97;;;1.42;;
26502;SDS011;14177;51.520;6.764;2022-07-17T01:00:42;5.90;;;1.63;;
26502;SDS011;14177;51.520;6.764;2022-07-17T01:03:09;2.72;;;1.15;;
26502;SDS011;14177;51.520;6.764;2022-07-17T01:05:36;2.88;;;1.13;;
26502;SDS011;14177;51.520;6.764;2022-07-17T01:08:03;7.45;;;1.52;;
26502;SDS011;14177;51.520;6.764;2022-07-17T01:10:31;4.07;;;1.30;;
26502;SDS011;14177;51.520;6.764;2022-07-17T01:12:58;3.30;;;1.35;;
26502;SDS011;14177;51.520;6.764;2022-07-17T01:15:26;4.93;;;1.50;;
26502;SDS011;14177;51.520;6.764;2022-07-17T01:17:53;5.90;;;1.50;;
26502;SDS011;14177;51.520;6.764;2022-07-17T01:20:20;4.18;;;1.33;;
26502;SDS011;14177;51.520;6.764;2022-07-17T01:22:49;2.08;;;1.15;;
26502;SDS011;14177;51.520;6.764;2022-07-17T01:25:20;5.03;;;1.42;;
26502;SDS011;14177;51.520;6.764;2022-07-17T01:27:49;5.38;;;1.90;;
26502;SDS011;14177;51.520;6.764;2022-07-17T01:30:17;7.20;;;2.10;;
26502;SDS011;14177;51.520;6.764;2022-07-17T01:32:45;8.30;;;1.80;;
26502;SDS011;14177;51.520;6.764;2022-07-17T01:35:12;3.65;;;1.58;;
26502;SDS011;14177;51.520;6.764;2022-07-17T01:37:41;3.20;;;1.60;;
26502;SDS011;14177;51.520;6.764;2022-07-17T01:40:11;4.13;;;1.20;;
26502;SDS011;14177;51.520;6.764;2022-07-17T01:42:44;2.83;;;1.42;;
26502;SDS011;14177;51.520;6.764;2022-07-17T01:45:16;3.72;;;1.42;;
26502;SDS011;14177;51.520;6.764;2022-07-17T01:47:45;5.97;;;1.27;;
26502;SDS011;14177;51.520;6.764;2022-07-17T01:50:13;6.00;;;1.42;;
26502;SDS011;14177;51.520;6.764;2022-07-17T01:52:42;8.40;;;1.35;;
26502;SDS011;14177;51.520;6.764;2022-07-17T01:55:11;3.38;;;1.25;;
26502;SDS011;14177;51.520;6.764;2022-07-17T01:57:41;3.28;;;1.38;;
26502;SDS011;14177;51.520;6.764;2022-07-17T02:00:12;5.65;;;1.40;;
26502;SDS011;14177;51.520;6.764;2022-07-17T02:02:43;2.67;;;1.20;;
26502;SDS011;14177;51.520;6.764;2022-07-17T02:05:11;4.15;;;1.08;;
26502;SDS011;14177;51.520;6.764;2022-07-17T02:07:39;5.13;;;1.17;;
26502;SDS011;14177;51.520;6.764;2022-07-17T02:10:09;5.72;;;1.25;;
26502;SDS011;14177;51.520;6.764;2022-07-17T02:12:40;2.63;;;1.10;;
26502;SDS011;14177;51.520;6.764;2022-07-17T02:15:11;4.05;;;1.27;;
26502;SDS011;14177;51.520;6.764;2022-07-17T02:17:40;3.92;;;1.25;;
26502;SDS011;14177;51.520;6.764;2022-07-17T02:20:09;3.47;;;1.17;;
26502;SDS011;14177;51.520;6.764;2022-07-17T02:22:38;5.20;;;1.50;;
26502;SDS011;14177;51.520;6.764;2022-07-17T02:25:06;6.35;;;1.50;;
26502;SDS011;14177;51.520;6.764;2022-07-17T02:27:35;3.53;;;1.25;;
26502;SDS011;14177;51.520;6.764;2022-07-17T02:30:03;2.67;;;1.52;;
26502;SDS011;14177;51.520;6.764;2022-07-17T02:32:36;3.08;;;1.20;;
26502;SDS011;14177;51.520;6.764;2022-07-17T02:35:03;3.10;;;1.23;;
26502;SDS011;14177;51.520;6.764;2022-07-17T02:37:32;4.13;;;1.30;;
26502;SDS011;14177;51.520;6.764;2022-07-17T02:39:59;4.78;;;1.35;;
26502;SDS011;14177;51.520;6.764;2022-07-17T02:42:28;5.20;;;1.42;;
26502;SDS011;14177;51.520;6.764;2022-07-17T02:44:55;4.00;;;1.20;;
26502;SDS011;14177;51.520;6.764;2022-07-17T02:47:28;5.47;;;1.55;;
26502;SDS011;14177;51.520;6.764;2022-07-17T02:49:57;5.03;;;1.50;;
26502;SDS011;14177;51.520;6.764;2022-07-17T02:52:27;3.28;;;1.58;;
26502;SDS011;14177;51.520;6.764;2022-07-17T02:54:54;2.60;;;1.17;;
26502;SDS011;14177;51.520;6.764;2022-07-17T02:57:21;3.40;;;1.52;;
26502;SDS011;14177;51.520;6.764;2022-07-17T02:59:48;2.75;;;1.48;;
26502;SDS011;14177;51.520;6.764;2022-07-17T03:02:15;4.95;;;1.60;;
26502;SDS011;14177;51.520;6.764;2022-07-17T03:04:42;4.13;;;1.52;;
26502;SDS011;14177;51.520;6.764;2022-07-17T03:07:09;3.30;;;1.52;;
26502;SDS011;14177;51.520;6.764;2022-07-17T03:09:36;4.93;;;1.58;;
26502;SDS011;14177;51.520;6.764;2022-07-17T03:12:03;6.85;;;1.63;;
26502;SDS011;14177;51.520;6.764;2022-07-17T03:14:30;3.90;;;1.20;;
26502;SDS011;14177;51.520;6.764;2022-07-17T03:16:57;3.30;;;1.40;;
26502;SDS011;14177;51.520;6.764;2022-07-17T03:19:24;3.22;;;1.30;;
26502;SDS011;14177;51.520;6.764;2022-07-17T03:21:51;3.03;;;1.30;;
26502;SDS011;14177;51.520;6.764;2022-07-17T03:24:18;3.53;;;1.35;;
26502;SDS011;14177;51.520;6.764;2022-07-17T03:26:45;5.43;;;1.65;;
26502;SDS011;14177;51.520;6.764;2022-07-17T03:29:12;6.82;;;1.58;;
26502;SDS011;14177;51.520;6.764;2022-07-17T03:31:43;3.08;;;1.30;;
26502;SDS011;14177;51.520;6.764;2022-07-17T03:34:13;4.68;;;1.60;;
26502;SDS011;14177;51.520;6.764;2022-07-17T03:36:40;4.43;;;1.90;;
26502;SDS011;14177;51.520;6.764;2022-07-17T03:39:07;4.25;;;1.35;;
26502;SDS011;14177;51.520;6.764;2022-07-17T03:41:34;2.60;;;1.33;;
26502;SDS011;14177;51.520;6.764;2022-07-17T03:44:01;2.63;;;1.33;;
26502;SDS011;14177;51.520;6.764;2022-07-17T03:46:29;5.10;;;1.52;;
26502;SDS011;14177;51.520;6.764;2022-07-17T03:48:56;4.15;;;1.40;;
26502;SDS011;14177;51.520;6.764;2022-07-17T03:51:23;4.75;;;1.20;;
26502;SDS011;14177;51.520;6.764;2022-07-17T03:53:50;6.03;;;1.67;;
26502;SDS011;14177;51.520;6.764;2022-07-17T03:56:19;4.45;;;1.50;;
26502;SDS011;14177;51.520;6.764;2022-07-17T03:58:46;4.75;;;1.40;;
26502;SDS011;14177;51.520;6.764;2022-07-17T04:01:13;5.15;;;1.55;;
26502;SDS011;14177;51.520;6.764;2022-07-17T04:03:41;4.40;;;1.60;;
26502;SDS011;14177;51.520;6.764;2022-07-17T04:06:08;4.63;;;1.30;;
26502;SDS011;14177;51.520;6.764;2022-07-17T04:08:35;5.13;;;1.55;;
26502;SDS011;14177;51.520;6.764;2022-07-17T04:11:02;2.67;;;1.30;;
26502;SDS011;14177;51.520;6.764;2022-07-17T04:13:35;5.10;;;1.70;;
26502;SDS011;14177;51.520;6.764;2022-07-17T04:16:03;6.78;;;1.48;;
26502;SDS011;14177;51.520;6.764;2022-07-17T04:18:32;5.60;;;1.40;;
26502;SDS011;14177;51.520;6.764;2022-07-17T04:21:03;3.15;;;1.60;;
26502;SDS011;14177;51.520;6.764;2022-07-17T04:23:32;3.78;;;1.40;;
26502;SDS011;14177;51.520;6.764;2022-07-17T04:26:00;5.18;;;1.60;;
26502;SDS011;14177;51.520;6.764;2022-07-17T04:28:35;9.80;;;2.13;;
26502;SDS011;14177;51.520;6.764;2022-07-17T04:31:02;5.93;;;1.67;;
26502;SDS011;14177;51.520;6.764;2022-07-17T04:33:29;3.60;;;1.55;;
26502;SDS011;14177;51.520;6.764;2022-07-17T04:35:56;4.80;;;1.63;;
26502;SDS011;14177;51.520;6.764;2022-07-17T04:38:23;4.10;;;1.50;;
26502;SDS011;14177;51.520;6.764;2022-07-17T04:40:50;4.13;;;1.42;;
26502;SDS011;14177;51.520;6.764;2022-07-17T04:43:17;3.70;;;1.40;;
26502;SDS011;14177;51.520;6.764;2022-07-17T04:45:44;4.25;;;1.40;;
26502;SDS011;14177;51.520;6.764;2022-07-17T04:48:11;3.45;;;1.60;;
26502;SDS011;14177;51.520;6.764;2022-07-17T04:50:38;4.88;;;1.52;;
26502;SDS011;14177;51.520;6.764;2022-07-17T04:53:05;2.70;;;1.35;;
26502;SDS011;14177;51.520;6.764;2022-07-17T04:55:33;7.18;;;1.45;;
26502;SDS011;14177;51.520;6.764;2022-07-17T04:58:00;6.22;;;1.45;;
26502;SDS011;14177;51.520;6.764;2022-07-17T05:00:27;3.50;;;1.60;;
26502;SDS011;14177;51.520;6.764;2022-07-17T05:02:55;5.40;;;1.80;;
26502;SDS011;14177;51.520;6.764;2022-07-17T05:05:22;4.85;;;1.80;;
26502;SDS011;14177;51.520;6.764;2022-07-17T05:07:49;5.00;;;1.60;;
26502;SDS011;14177;51.520;6.764;2022-07-17T05:10:16;5.63;;;2.20;;
26502;SDS011;14177;51.520;6.764;2022-07-17T05:12:43;5.70;;;1.40;;
26502;SDS011;14177;51.520;6.764;2022-07-17T05:15:09;5.72;;;1.50;;
26502;SDS011;14177;51.520;6.764;2022-07-17T05:17:36;6.10;;;1.60;;
26502;SDS011;14177;51.520;6.764;2022-07-17T05:20:05;5.53;;;2.13;;
26502;SDS011;14177;51.520;6.764;2022-07-17T05:22:34;6.05;;;1.80;;
26502;SDS011;14177;51.520;6.764;2022-07-17T05:25:01;6.75;;;2.10;;
26502;SDS011;14177;51.520;6.764;2022-07-17T05:27:28;8.70;;;2.30;;
26502;SDS011;14177;51.520;6.764;2022-07-17T05:29:55;7.13;;;1.58;;
26502;SDS011;14177;51.520;6.764;2022-07-17T05:32:22;3.80;;;1.70;;
26502;SDS011;14177;51.520;6.764;2022-07-17T05:34:49;4.70;;;1.58;;
26502;SDS011;14177;51.520;6.764;2022-07-17T05:37:16;7.20;;;1.80;;
26502;SDS011;14177;51.520;6.764;2022-07-17T05:39:42;5.75;;;1.70;;
26502;SDS011;14177;51.520;6.764;2022-07-17T05:42:10;5.40;;;1.83;;
26502;SDS011;14177;51.520;6.764;2022-07-17T05:44:37;9.27;;;2.08;;
26502;SDS011;14177;51.520;6.764;2022-07-17T05:47:04;4.75;;;1.35;;
26502;SDS011;14177;51.520;6.764;2022-07-17T05:49:31;7.95;;;1.98;;
26502;SDS011;14177;51.520;6.764;2022-07-17T05:51:58;4.28;;;2.00;;
26502;SDS011;14177;51.520;6.764;2022-07-17T05:54:25;13.48;;;4.70;;
26502;SDS011;14177;51.520;6.764;2022-07-17T05:56:52;6.20;;;1.67;;
26502;SDS011;14177;51.520;6.764;2022-07-17T05:59:19;6.55;;;2.10;;
26502;SDS011;14177;51.520;6.764;2022-07-17T06:01:46;5.03;;;1.63;;
26502;SDS011;14177;51.520;6.764;2022-07-17T06:04:14;11.15;;;2.00;;
26502;SDS011;14177;51.520;6.764;2022-07-17T06:06:41;4.93;;;1.63;;
26502;SDS011;14177;51.520;6.764;2022-07-17T06:09:08;5.95;;;1.90;;
26502;SDS011;14177;51.520;6.764;2022-07-17T06:11:36;7.43;;;2.35;;
26502;SDS011;14177;51.520;6.764;2022-07-17T06:14:03;9.52;;;2.13;;
26502;SDS011;14177;51.520;6.764;2022-07-17T06:16:30;7.15;;;2.38;;
26502;SDS011;14177;51.520;6.764;2022-07-17T06:18:57;10.13;;;1.95;;
26502;SDS011;14177;51.520;6.764;2022-07-17T06:21:27;4.72;;;1.80;;
26502;SDS011;14177;51.520;6.764;2022-07-17T06:23:54;4.80;;;1.88;;
26502;SDS011;14177;51.520;6.764;2022-07-17T06:26:21;6.60;;;1.98;;
26502;SDS011;14177;51.520;6.764;2022-07-17T06:28:48;5.57;;;1.98;;
26502;SDS011;14177;51.520;6.764;2022-07-17T06:31:15;8.98;;;2.40;;
26502;SDS011;14177;51.520;6.764;2022-07-17T06:33:45;6.60;;;1.80;;
26502;SDS011;14177;51.520;6.764;2022-07-17T06:36:12;7.15;;;1.83;;
26502;SDS011;14177;51.520;6.764;2022-07-17T06:38:39;7.80;;;1.98;;
26502;SDS011;14177;51.520;6.764;2022-07-17T06:41:06;6.85;;;1.98;;
26502;SDS011;14177;51.520;6.764;2022-07-17T06:43:33;7.50;;;2.00;;
26502;SDS011;14177;51.520;6.764;2022-07-17T06:46:00;6.65;;;2.08;;
26502;SDS011;14177;51.520;6.764;2022-07-17T06:48:27;6.53;;;1.98;;
26502;SDS011;14177;51.520;6.764;2022-07-17T06:50:53;7.50;;;1.70;;
26502;SDS011;14177;51.520;6.764;2022-07-17T06:53:20;7.38;;;1.83;;
26502;SDS011;14177;51.520;6.764;2022-07-17T06:55:50;5.70;;;2.13;;
26502;SDS011;14177;51.520;6.764;2022-07-17T06:58:17;6.78;;;1.60;;
26502;SDS011;14177;51.520;6.764;2022-07-17T07:00:44;9.05;;;1.98;;
26502;SDS011;14177;51.520;6.764;2022-07-17T07:03:11;8.30;;;1.85;;
26502;SDS011;14177;51.520;6.764;2022-07-17T07:05:38;6.80;;;1.40;;
26502;SDS011;14177;51.520;6.764;2022-07-17T07:08:05;5.15;;;1.52;;
26502;SDS011;14177;51.520;6.764;2022-07-17T07:10:33;5.18;;;1.70;;
26502;SDS011;14177;51.520;6.764;2022-07-17T07:13:01;7.90;;;2.15;;
26502;SDS011;14177;51.520;6.764;2022-07-17T07:15:27;5.70;;;1.48;;
26502;SDS011;14177;51.520;6.764;2022-07-17T07:17:54;9.85;;;1.90;;
26502;SDS011;14177;51.520;6.764;2022-07-17T07:20:21;9.43;;;2.20;;
26502;SDS011;14177;51.520;6.764;2022-07-17T07:22:48;7.97;;;2.05;;
26502;SDS011;14177;51.520;6.764;2022-07-17T07:25:15;5.30;;;1.80;;
26502;SDS011;14177;51.520;6.764;2022-07-17T07:27:42;8.50;;;1.52;;
26502;SDS011;14177;51.520;6.764;2022-07-17T07:30:09;3.85;;;1.48;;
26502;SDS011;14177;51.520;6.764;2022-07-17T07:32:37;4.88;;;1.80;;
26502;SDS011;14177;51.520;6.764;2022-07-17T07:35:06;7.30;;;1.88;;
26502;SDS011;14177;51.520;6.764;2022-07-17T07:37:34;9.27;;;1.60;;
26502;SDS011;14177;51.520;6.764;2022-07-17T07:40:01;5.38;;;1.40;;
26502;SDS011;14177;51.520;6.764;2022-07-17T07:42:30;6.78;;;1.98;;
26502;SDS011;14177;51.520;6.764;2022-07-17T07:44:57;7.53;;;1.77;;
26502;SDS011;14177;51.520;6.764;2022-07-17T07:47:23;5.50;;;1.40;;
26502;SDS011;14177;51.520;6.764;2022-07-17T07:49:51;7.82;;;1.45;;
26502;SDS011;14177;51.520;6.764;2022-07-17T07:52:17;8.88;;;2.00;;
26502;SDS011;14177;51.520;6.764;2022-07-17T07:54:44;9.90;;;2.20;;
26502;SDS011;14177;51.520;6.764;2022-07-17T07:57:11;6.00;;;1.73;;
26502;SDS011;14177;51.520;6.764;2022-07-17T07:59:41;9.65;;;2.25;;
26502;SDS011;14177;51.520;6.764;2022-07-17T08:02:08;8.38;;;2.30;;
26502;SDS011;14177;51.520;6.764;2022-07-17T08:04:35;9.75;;;2.50;;
26502;SDS011;14177;51.520;6.764;2022-07-17T08:07:02;11.45;;;2.65;;
26502;SDS011;14177;51.520;6.764;2022-07-17T08:09:29;12.52;;;3.22;;
26502;SDS011;14177;51.520;6.764;2022-07-17T08:11:56;4.53;;;2.10;;
26502;SDS011;14177;51.520;6.764;2022-07-17T08:14:23;10.93;;;2.35;;
26502;SDS011;14177;51.520;6.764;2022-07-17T08:16:50;9.68;;;2.70;;
26502;SDS011;14177;51.520;6.764;2022-07-17T08:19:17;7.15;;;1.80;;
26502;SDS011;14177;51.520;6.764;2022-07-17T08:21:45;8.93;;;2.03;;
26502;SDS011;14177;51.520;6.764;2022-07-17T08:24:12;7.35;;;1.63;;
26502;SDS011;14177;51.520;6.764;2022-07-17T08:26:39;12.90;;;2.08;;
26502;SDS011;14177;51.520;6.764;2022-07-17T08:29:06;8.93;;;2.00;;
26502;SDS011;14177;51.520;6.764;2022-07-17T08:31:33;12.98;;;2.45;;
26502;SDS011;14177;51.520;6.764;2022-07-17T08:34:00;14.95;;;2.47;;
26502;SDS011;14177;51.520;6.764;2022-07-17T08:36:27;12.52;;;1.73;;
26502;SDS011;14177;51.520;6.764;2022-07-17T08:38:56;8.35;;;1.80;;
26502;SDS011;14177;51.520;6.764;2022-07-17T08:41:23;7.15;;;1.90;;
26502;SDS011;14177;51.520;6.764;2022-07-17T08:43:52;7.60;;;1.88;;
26502;SDS011;14177;51.520;6.764;2022-07-17T08:46:24;5.65;;;1.60;;
26502;SDS011;14177;51.520;6.764;2022-07-17T08:48:56;10.82;;;1.77;;
26502;SDS011;14177;51.520;6.764;2022-07-17T08:51:25;5.45;;;1.20;;
26502;SDS011;14177;51.520;6.764;2022-07-17T08:53:54;4.38;;;1.52;;
26502;SDS011;14177;51.520;6.764;2022-07-17T08:56:22;13.18;;;1.65;;
26502;SDS011;14177;51.520;6.764;2022-07-17T08:58:50;4.15;;;1.25;;
26502;SDS011;14177;51.520;6.764;2022-07-17T09:01:18;8.68;;;1.40;;
26502;SDS011;14177;51.520;6.764;2022-07-17T09:03:56;5.82;;;1.60;;
26502;SDS011;14177;51.520;6.764;2022-07-17T09:06:35;7.72;;;1.33;;
26502;SDS011;14177;51.520;6.764;2022-07-17T09:09:12;5.90;;;1.30;;
26502;SDS011;14177;51.520;6.764;2022-07-17T09:11:44;6.45;;;1.30;;
26502;SDS011;14177;51.520;6.764;2022-07-17T09:14:17;7.68;;;1.65;;
26502;SDS011;14177;51.520;6.764;2022-07-17T09:19:24;7.27;;;2.03;;
26502;SDS011;14177;51.520;6.764;2022-07-17T09:24:52;5.78;;;1.70;;
26502;SDS011;14177;51.520;6.764;2022-07-17T09:30:03;6.50;;;1.27;;
26502;SDS011;14177;51.520;6.764;2022-07-17T09:32:39;6.20;;;1.40;;
26502;SDS011;14177;51.520;6.764;2022-07-17T09:35:08;3.85;;;1.30;;
26502;SDS011;14177;51.520;6.764;2022-07-17T09:37:37;5.53;;;1.30;;
26502;SDS011;14177;51.520;6.764;2022-07-17T09:40:08;6.55;;;1.50;;
26502;SDS011;14177;51.520;6.764;2022-07-17T09:43:01;4.93;;;1.38;;
26502;SDS011;14177;51.520;6.764;2022-07-17T09:45:29;4.00;;;1.25;;
26502;SDS011;14177;51.520;6.764;2022-07-17T09:48:01;5.53;;;1.35;;
26502;SDS011;14177;51.520;6.764;2022-07-17T09:50:29;7.22;;;1.70;;
26502;SDS011;14177;51.520;6.764;2022-07-17T09:52:58;7.90;;;1.48;;
26502;SDS011;14177;51.520;6.764;2022-07-17T09:55:30;5.15;;;1.45;;
26502;SDS011;14177;51.520;6.764;2022-07-17T09:58:14;6.15;;;1.90;;
26502;SDS011;14177;51.520;6.764;2022-07-17T10:00:48;4.25;;;1.20;;
26502;SDS011;14177;51.520;6.764;2022-07-17T10:03:18;5.15;;;1.50;;
26502;SDS011;14177;51.520;6.764;2022-07-17T10:05:46;4.80;;;1.58;;
26502;SDS011;14177;51.520;6.764;2022-07-17T10:08:13;5.80;;;1.23;;
26502;SDS011;14177;51.520;6.764;2022-07-17T10:10:41;7.30;;;1.35;;
26502;SDS011;14177;51.520;6.764;2022-07-17T10:13:09;7.30;;;1.60;;
26502;SDS011;14177;51.520;6.764;2022-07-17T10:15:36;4.13;;;1.23;;
26502;SDS011;14177;51.520;6.764;2022-07-17T10:18:04;5.75;;;1.35;;
26502;SDS011;14177;51.520;6.764;2022-07-17T10:20:32;7.20;;;1.15;;
26502;SDS011;14177;51.520;6.764;2022-07-17T10:23:10;3.38;;;1.13;;
26502;SDS011;14177;51.520;6.764;2022-07-17T10:25:39;5.35;;;1.27;;
26502;SDS011;14177;51.520;6.764;2022-07-17T10:28:06;5.32;;;1.30;;
26502;SDS011;14177;51.520;6.764;2022-07-17T10:30:41;6.97;;;1.23;;
26502;SDS011;14177;51.520;6.764;2022-07-17T10:33:10;4.63;;;1.60;;
26502;SDS011;14177;51.520;6.764;2022-07-17T10:35:45;3.15;;;1.17;;
26502;SDS011;14177;51.520;6.764;2022-07-17T10:38:15;5.18;;;1.20;;
26502;SDS011;14177;51.520;6.764;2022-07-17T10:40:42;7.03;;;1.60;;
26502;SDS011;14177;51.520;6.764;2022-07-17T10:43:09;4.40;;;1.45;;
26502;SDS011;14177;51.520;6.764;2022-07-17T10:45:41;3.88;;;1.30;;
26502;SDS011;14177;51.520;6.764;2022-07-17T10:48:12;5.88;;;1.38;;
26502;SDS011;14177;51.520;6.764;2022-07-17T10:50:44;5.00;;;1.38;;
26502;SDS011;14177;51.520;6.764;2022-07-17T10:53:25;3.00;;;1.35;;
26502;SDS011;14177;51.520;6.764;2022-07-17T10:58:29;2.70;;;1.10;;
26502;SDS011;14177;51.520;6.764;2022-07-17T11:01:03;3.67;;;1.20;;
26502;SDS011;14177;51.520;6.764;2022-07-17T11:03:38;4.75;;;1.40;;
26502;SDS011;14177;51.520;6.764;2022-07-17T11:06:17;3.10;;;1.33;;
26502;SDS011;14177;51.520;6.764;2022-07-17T11:14:16;5.72;;;1.55;;
26502;SDS011;14177;51.520;6.764;2022-07-17T11:16:46;5.10;;;1.20;;
26502;SDS011;14177;51.520;6.764;2022-07-17T11:19:34;5.95;;;1.38;;
26502;SDS011;14177;51.520;6.764;2022-07-17T11:22:07;3.95;;;1.17;;
26502;SDS011;14177;51.520;6.764;2022-07-17T11:24:37;5.97;;;1.77;;
26502;SDS011;14177;51.520;6.764;2022-07-17T11:27:10;7.78;;;1.80;;
26502;SDS011;14177;51.520;6.764;2022-07-17T11:29:40;4.85;;;1.83;;
26502;SDS011;14177;51.520;6.764;2022-07-17T11:32:07;5.45;;;1.30;;
26502;SDS011;14177;51.520;6.764;2022-07-17T11:34:35;4.78;;;1.63;;
26502;SDS011;14177;51.520;6.764;2022-07-17T11:37:03;5.60;;;1.77;;
26502;SDS011;14177;51.520;6.764;2022-07-17T11:39:41;3.63;;;1.13;;
26502;SDS011;14177;51.520;6.764;2022-07-17T11:42:14;7.97;;;1.88;;
26502;SDS011;14177;51.520;6.764;2022-07-17T11:44:44;5.72;;;1.55;;
26502;SDS011;14177;51.520;6.764;2022-07-17T11:47:18;4.78;;;1.40;;
26502;SDS011;14177;51.520;6.764;2022-07-17T11:49:50;4.57;;;1.70;;
26502;SDS011;14177;51.520;6.764;2022-07-17T11:52:19;6.50;;;1.63;;
26502;SDS011;14177;51.520;6.764;2022-07-17T11:54:54;3.88;;;1.70;;
26502;SDS011;14177;51.520;6.764;2022-07-17T11:57:23;6.32;;;1.70;;
26502;SDS011;14177;51.520;6.764;2022-07-17T11:59:54;8.25;;;2.58;;
26502;SDS011;14177;51.520;6.764;2022-07-17T12:02:36;7.38;;;2.30;;
26502;SDS011;14177;51.520;6.764;2022-07-17T12:05:03;7.32;;;2.22;;
26502;SDS011;14177;51.520;6.764;2022-07-17T12:07:41;6.55;;;2.03;;
26502;SDS011;14177;51.520;6.764;2022-07-17T12:10:12;8.18;;;2.33;;
26502;SDS011;14177;51.520;6.764;2022-07-17T12:12:53;10.38;;;2.05;;
26502;SDS011;14177;51.520;6.764;2022-07-17T12:15:34;4.40;;;2.03;;
26502;SDS011;14177;51.520;6.764;2022-07-17T12:18:33;11.55;;;2.58;;
26502;SDS011;14177;51.520;6.764;2022-07-17T12:20:57;9.07;;;2.20;;
26502;SDS011;14177;51.520;6.764;2022-07-17T12:23:33;5.40;;;1.90;;
26502;SDS011;14177;51.520;6.764;2022-07-17T12:26:07;6.55;;;2.33;;
26502;SDS011;14177;51.520;6.764;2022-07-17T12:28:44;5.63;;;2.25;;
26502;SDS011;14177;51.520;6.764;2022-07-17T12:31:12;6.50;;;2.45;;
26502;SDS011;14177;51.520;6.764;2022-07-17T12:33:41;5.90;;;2.40;;
26502;SDS011;14177;51.520;6.764;2022-07-17T12:36:09;5.97;;;2.30;;
26502;SDS011;14177;51.520;6.764;2022-07-17T12:38:36;7.38;;;2.50;;
26502;SDS011;14177;51.520;6.764;2022-07-17T12:41:03;5.97;;;2.28;;
26502;SDS011;14177;51.520;6.764;2022-07-17T12:43:31;4.68;;;2.38;;
26502;SDS011;14177;51.520;6.764;2022-07-17T12:45:58;5.88;;;2.35;;
26502;SDS011;14177;51.520;6.764;2022-07-17T12:48:36;6.13;;;2.05;;
26502;SDS011;14177;51.520;6.764;2022-07-17T12:51:06;8.50;;;2.50;;
26502;SDS011;14177;51.520;6.764;2022-07-17T12:53:36;9.15;;;2.40;;
26502;SDS011;14177;51.520;6.764;2022-07-17T12:56:03;4.35;;;2.50;;
26502;SDS011;14177;51.520;6.764;2022-07-17T12:58:34;4.38;;;2.17;;
26502;SDS011;14177;51.520;6.764;2022-07-17T13:01:28;5.45;;;2.20;;
26502;SDS011;14177;51.520;6.764;2022-07-17T13:03:55;6.53;;;2.00;;
26502;SDS011;14177;51.520;6.764;2022-07-17T13:06:22;4.22;;;1.90;;
26502;SDS011;14177;51.520;6.764;2022-07-17T13:08:49;6.30;;;2.05;;
26502;SDS011;14177;51.520;6.764;2022-07-17T13:11:16;7.53;;;2.53;;
26502;SDS011;14177;51.520;6.764;2022-07-17T13:13:44;5.93;;;2.47;;
26502;SDS011;14177;51.520;6.764;2022-07-17T13:16:12;4.88;;;2.13;;
26502;SDS011;14177;51.520;6.764;2022-07-17T13:18:40;4.72;;;2.40;;
26502;SDS011;14177;51.520;6.764;2022-07-17T13:21:07;5.03;;;2.17;;
26502;SDS011;14177;51.520;6.764;2022-07-17T13:23:34;4.90;;;2.30;;
26502;SDS011;14177;51.520;6.764;2022-07-17T13:26:01;5.72;;;2.35;;
26502;SDS011;14177;51.520;6.764;2022-07-17T13:28:29;6.38;;;2.50;;
26502;SDS011;14177;51.520;6.764;2022-07-17T13:30:57;6.13;;;2.40;;
26502;SDS011;14177;51.520;6.764;2022-07-17T13:33:24;8.65;;;2.33;;
26502;SDS011;14177;51.520;6.764;2022-07-17T13:35:52;6.50;;;2.17;;
26502;SDS011;14177;51.520;6.764;2022-07-17T13:38:20;5.68;;;2.38;;
26502;SDS011;14177;51.520;6.764;2022-07-17T13:40:47;6.35;;;2.40;;
26502;SDS011;14177;51.520;6.764;2022-07-17T13:43:15;7.00;;;2.38;;
26502;SDS011;14177;51.520;6.764;2022-07-17T13:45:42;7.40;;;2.47;;
26502;SDS011;14177;51.520;6.764;2022-07-17T13:48:09;6.18;;;2.40;;
26502;SDS011;14177;51.520;6.764;2022-07-17T13:50:37;5.63;;;2.10;;
26502;SDS011;14177;51.520;6.764;2022-07-17T13:53:03;5.75;;;2.28;;
26502;SDS011;14177;51.520;6.764;2022-07-17T13:55:31;5.78;;;2.25;;
26502;SDS011;14177;51.520;6.764;2022-07-17T13:58:11;4.85;;;2.20;;
26502;SDS011;14177;51.520;6.764;2022-07-17T14:00:39;4.38;;;2.38;;
26502;SDS011;14177;51.520;6.764;2022-07-17T14:03:07;6.10;;;2.15;;
26502;SDS011;14177;51.520;6.764;2022-07-17T14:05:34;5.97;;;2.30;;
26502;SDS011;14177;51.520;6.764;2022-07-17T14:08:01;5.38;;;2.15;;
26502;SDS011;14177;51.520;6.764;2022-07-17T14:10:28;4.50;;;1.67;;
26502;SDS011;14177;51.520;6.764;2022-07-17T14:12:55;6.45;;;1.90;;
26502;SDS011;14177;51.520;6.764;2022-07-17T14:15:23;6.28;;;2.20;;
26502;SDS011;14177;51.520;6.764;2022-07-17T14:17:50;3.92;;;1.88;;
26502;SDS011;14177;51.520;6.764;2022-07-17T14:20:17;6.70;;;2.28;;
26502;SDS011;14177;51.520;6.764;2022-07-17T14:22:44;3.72;;;1.90;;
26502;SDS011;14177;51.520;6.764;2022-07-17T14:25:11;7.47;;;2.00;;
26502;SDS011;14177;51.520;6.764;2022-07-17T14:27:38;5.07;;;1.80;;
26502;SDS011;14177;51.520;6.764;2022-07-17T14:30:05;5.20;;;2.10;;
26502;SDS011;14177;51.520;6.764;2022-07-17T14:32:33;5.32;;;1.92;;
26502;SDS011;14177;51.520;6.764;2022-07-17T14:35:00;5.18;;;1.80;;
26502;SDS011;14177;51.520;6.764;2022-07-17T14:37:27;5.90;;;2.80;;
26502;SDS011;14177;51.520;6.764;2022-07-17T14:39:55;6.85;;;1.73;;
26502;SDS011;14177;51.520;6.764;2022-07-17T14:42:22;5.88;;;1.80;;
26502;SDS011;14177;51.520;6.764;2022-07-17T14:44:49;5.88;;;2.08;;
26502;SDS011;14177;51.520;6.764;2022-07-17T14:47:16;6.97;;;1.88;;
26502;SDS011;14177;51.520;6.764;2022-07-17T14:49:44;4.95;;;1.65;;
26502;SDS011;14177;51.520;6.764;2022-07-17T14:52:11;3.50;;;1.30;;
26502;SDS011;14177;51.520;6.764;2022-07-17T14:54:38;3.38;;;1.17;;
26502;SDS011;14177;51.520;6.764;2022-07-17T14:57:05;5.50;;;1.80;;
26502;SDS011;14177;51.520;6.764;2022-07-17T14:59:31;4.10;;;1.90;;
26502;SDS011;14177;51.520;6.764;2022-07-17T15:01:59;5.28;;;1.70;;
26502;SDS011;14177;51.520;6.764;2022-07-17T15:04:26;3.10;;;0.90;;
26502;SDS011;14177;51.520;6.764;2022-07-17T15:06:53;2.22;;;0.80;;
26502;SDS011;14177;51.520;6.764;2022-07-17T15:09:29;2.38;;;0.63;;
26502;SDS011;14177;51.520;6.764;2022-07-17T15:11:56;1.70;;;0.80;;
26502;SDS011;14177;51.520;6.764;2022-07-17T15:14:23;2.45;;;1.00;;